Seaspan Chiwan — VRBH3 — position and weather

sailwx.info

Track history (hours):
 
Tides and Currents Weather Stations Pressure Air Temp Water Temp Dewpoint Dewpoint Depression Visibility Wind Speed Wind Dir Waves Ship Positions

Seaspan Chiwan

Last reported at 2016-Aug-25 03:33 UTC. Time now 2016-Aug-25 08:05 UTC.
Position N 36°04' W 004°46'.

Length 260 m; draft 10 m.

Type: Cargo ship. MMSI: 477014500.

Date/timePositionNaut miles runAvg speedWind from/ knotsBaromVisibWave heightAir tempDewpointWater temp
2016-Aug-25 03:33N 36°04' W 004°46'1616.1
2016-Aug-25 02:34N 36°01' W 005°06'1716.8
2016-Aug-25 01:34N 35°57' W 005°26'5 0.6
2016-Aug-24 17:24N 35°54' W 005°30'5 5.7
2016-Aug-24 16:32N 35°54' W 005°36'1312.9
2016-Aug-24 15:34N 35°53' W 005°51'18416.8
2016-Aug-24 04:33N 36°46' W 009°31'1716.8
2016-Aug-24 03:33N 37°02' W 009°38'1717.1
2016-Aug-24 02:34N 37°19' W 009°41'1717.4
2016-Aug-24 01:34N 37°36' W 009°41'1817.5
2016-Aug-24 00:33N 37°54' W 009°40'1717.2
2016-Aug-23 23:33N 38°11' W 009°40'1616.2
2016-Aug-23 22:33N 38°26' W 009°34'1413.6
2016-Aug-23 21:34N 38°37' W 009°23'1211.5
2016-Aug-23 20:33N 38°42' W 009°10'0 0.0
2016-Aug-23 19:33N 38°42' W 009°10'0 0.0
2016-Aug-23 18:31N 38°42' W 009°10'0 0.0
2016-Aug-23 17:30N 38°42' W 009°10'0 0.0
2016-Aug-23 16:33N 38°42' W 009°10'0 0.0
2016-Aug-23 15:33N 38°42' W 009°10'0 0.0
2016-Aug-23 14:30N 38°42' W 009°10'0 0.0
2016-Aug-23 13:33N 38°42' W 009°10'0 0.0
2016-Aug-23 12:33N 38°42' W 009°10'0 0.0
2016-Aug-23 11:33N 38°42' W 009°10'0 0.0
2016-Aug-23 10:33N 38°42' W 009°10'0 0.0
2016-Aug-23 09:33N 38°42' W 009°10'0 0.0
2016-Aug-23 08:33N 38°42' W 009°10'0 0.0
2016-Aug-23 07:30N 38°42' W 009°10'0 0.0
2016-Aug-23 06:33N 38°42' W 009°10'8 7.6
2016-Aug-23 05:33N 38°40' W 009°19'8 7.7
2016-Aug-23 04:34N 38°39' W 009°29'1111.1
2016-Aug-23 03:33N 38°35' W 009°43'1716.6
2016-Aug-23 02:33N 38°33' W 010°04'1818.0
2016-Aug-23 01:33N 38°31' W 010°26'1817.7
2016-Aug-23 00:33N 38°29' W 010°49'1817.7
2016-Aug-22 23:33N 38°27' W 011°12'1817.8
2016-Aug-22 22:33N 38°25' W 011°34'1817.7
2016-Aug-22 21:33N 38°23' W 011°56'1817.7
2016-Aug-22 20:33N 38°21' W 012°19'1817.6
2016-Aug-22 19:33N 38°19' W 012°41'1717.2
2016-Aug-22 18:33N 38°17' W 013°03'1717.2
2016-Aug-22 17:33N 38°15' W 013°25'1717.0
2016-Aug-22 16:33N 38°13' W 013°46'1717.3
2016-Aug-22 15:33N 38°11' W 014°08'1717.3
2016-Aug-22 14:33N 38°09' W 014°30'3417.1
2016-Aug-22 12:33N 38°05' W 015°13'1716.9
2016-Aug-22 11:33N 38°01' W 015°34'1716.9
2016-Aug-22 10:33N 37°59' W 015°55'1717.0
2016-Aug-22 09:32N 37°56' W 016°17'1616.8
2016-Aug-22 08:33N 37°53' W 016°37'1917.0
2016-Aug-22 07:26N 37°50' W 017°01'30617.0
2016-Aug-21 13:26N 36°49' W 023°18'1517.1
2016-Aug-21 12:33N 36°46' W 023°36'1717.2
2016-Aug-21 11:34N 36°42' W 023°57'1717.0
2016-Aug-21 10:33N 36°38' W 024°17'1717.0
2016-Aug-21 09:33N 36°34' W 024°38'1717.2
2016-Aug-21 08:33N 36°30' W 024°59'1717.0
2016-Aug-21 07:33N 36°26' W 025°19'1717.0
2016-Aug-21 06:33N 36°22' W 025°40'1717.1
2016-Aug-21 05:33N 36°17' W 026°00'1717.3
2016-Aug-21 04:33N 36°13' W 026°21'1716.9
2016-Aug-21 03:33N 36°09' W 026°42'1716.9
2016-Aug-21 02:31N 36°04' W 027°03'1817.2
2016-Aug-21 01:28N 35°60' W 027°24'1617.0
2016-Aug-21 00:32N 35°56' W 027°43'2117.3
2016-Aug-20 23:19N 35°51' W 028°08'1817.1
2016-Aug-20 22:16N 35°46' W 028°29'4717.1
2016-Aug-20 19:31N 35°34' W 029°26'  
Track history (hours):
 
Tides and Currents Weather Stations Pressure Air Temp Water Temp Dewpoint Dewpoint Depression Visibility Wind Speed Wind Dir Waves Ship Positions

Seaspan Chiwan

Last reported at 2016-Aug-25 03:33 UTC. Time now 2016-Aug-25 08:05 UTC.
Position N 36°04' W 004°46'.

Length 260 m; draft 10 m.

Type: Cargo ship. MMSI: 477014500.

Date/timePositionNaut miles runAvg speedWind from/ knotsBaromVisibWave heightAir tempDewpointWater temp
2016-Aug-25 03:33N 36°04' W 004°46'1616.1
2016-Aug-25 02:34N 36°01' W 005°06'1716.8
2016-Aug-25 01:34N 35°57' W 005°26'5 0.6
2016-Aug-24 17:24N 35°54' W 005°30'5 5.7
2016-Aug-24 16:32N 35°54' W 005°36'1312.9
2016-Aug-24 15:34N 35°53' W 005°51'18416.8
2016-Aug-24 04:33N 36°46' W 009°31'1716.8
2016-Aug-24 03:33N 37°02' W 009°38'1717.1
2016-Aug-24 02:34N 37°19' W 009°41'1717.4
2016-Aug-24 01:34N 37°36' W 009°41'1817.5
2016-Aug-24 00:33N 37°54' W 009°40'1717.2
2016-Aug-23 23:33N 38°11' W 009°40'1616.2
2016-Aug-23 22:33N 38°26' W 009°34'1413.6
2016-Aug-23 21:34N 38°37' W 009°23'1211.5
2016-Aug-23 20:33N 38°42' W 009°10'0 0.0
2016-Aug-23 19:33N 38°42' W 009°10'0 0.0
2016-Aug-23 18:31N 38°42' W 009°10'0 0.0
2016-Aug-23 17:30N 38°42' W 009°10'0 0.0
2016-Aug-23 16:33N 38°42' W 009°10'0 0.0
2016-Aug-23 15:33N 38°42' W 009°10'0 0.0
2016-Aug-23 14:30N 38°42' W 009°10'0 0.0
2016-Aug-23 13:33N 38°42' W 009°10'0 0.0
2016-Aug-23 12:33N 38°42' W 009°10'0 0.0
2016-Aug-23 11:33N 38°42' W 009°10'0 0.0
2016-Aug-23 10:33N 38°42' W 009°10'0 0.0
2016-Aug-23 09:33N 38°42' W 009°10'0 0.0
2016-Aug-23 08:33N 38°42' W 009°10'0 0.0
2016-Aug-23 07:30N 38°42' W 009°10'0 0.0
2016-Aug-23 06:33N 38°42' W 009°10'8 7.6
2016-Aug-23 05:33N 38°40' W 009°19'8 7.7
2016-Aug-23 04:34N 38°39' W 009°29'1111.1
2016-Aug-23 03:33N 38°35' W 009°43'1716.6
2016-Aug-23 02:33N 38°33' W 010°04'1818.0
2016-Aug-23 01:33N 38°31' W 010°26'1817.7
2016-Aug-23 00:33N 38°29' W 010°49'1817.7
2016-Aug-22 23:33N 38°27' W 011°12'1817.8
2016-Aug-22 22:33N 38°25' W 011°34'1817.7
2016-Aug-22 21:33N 38°23' W 011°56'1817.7
2016-Aug-22 20:33N 38°21' W 012°19'1817.6
2016-Aug-22 19:33N 38°19' W 012°41'1717.2
2016-Aug-22 18:33N 38°17' W 013°03'1717.2
2016-Aug-22 17:33N 38°15' W 013°25'1717.0
2016-Aug-22 16:33N 38°13' W 013°46'1717.3
2016-Aug-22 15:33N 38°11' W 014°08'1717.3
2016-Aug-22 14:33N 38°09' W 014°30'3417.1
2016-Aug-22 12:33N 38°05' W 015°13'1716.9
2016-Aug-22 11:33N 38°01' W 015°34'1716.9
2016-Aug-22 10:33N 37°59' W 015°55'1717.0
2016-Aug-22 09:32N 37°56' W 016°17'1616.8
2016-Aug-22 08:33N 37°53' W 016°37'1917.0
2016-Aug-22 07:26N 37°50' W 017°01'30617.0
2016-Aug-21 13:26N 36°49' W 023°18'1517.1
2016-Aug-21 12:33N 36°46' W 023°36'1717.2
2016-Aug-21 11:34N 36°42' W 023°57'1717.0
2016-Aug-21 10:33N 36°38' W 024°17'1717.0
2016-Aug-21 09:33N 36°34' W 024°38'1717.2
2016-Aug-21 08:33N 36°30' W 024°59'1717.0
2016-Aug-21 07:33N 36°26' W 025°19'1717.0
2016-Aug-21 06:33N 36°22' W 025°40'1717.1
2016-Aug-21 05:33N 36°17' W 026°00'1717.3
2016-Aug-21 04:33N 36°13' W 026°21'1716.9
2016-Aug-21 03:33N 36°09' W 026°42'1716.9
2016-Aug-21 02:31N 36°04' W 027°03'1817.2
2016-Aug-21 01:28N 35°60' W 027°24'1617.0
2016-Aug-21 00:32N 35°56' W 027°43'2117.3
2016-Aug-20 23:19N 35°51' W 028°08'1817.1
2016-Aug-20 22:16N 35°46' W 028°29'4717.1
2016-Aug-20 19:31N 35°34' W 029°26'  

Dump ship's entire track history